BOD weather

Bordeaux-Mérignac Airport
Bordeaux/Mérignac, Nouvelle-Aquitaine, France

Public forecast

Using degrees Celsius for public forecast. Weather courtesy of forecast.io.

Current aviation weather report (METAR) for Bordeaux-Mérignac Airport

Retrieved 2019/11/13 21:30 UTC (0 seconds ago):

LFBD 132130Z AUTO 18012KT 9000 -RA SCT012/// BKN021/// BKN031/// ///CB 09/08 Q1001 TEMPO 25020G30KT 1500 SHRA BECMG NSC

Aviation forecast (TAF) for Bordeaux-Mérignac Airport

Retrieved 2019/11/13 18:13 UTC (3 hours ago):

TAF LFBD 131700Z 1318/1424 18010KT 9999 BKN045 TX10/1414Z TN05/1424Z TEMPO 1318/1321 4000 -SHRA BKN025TCU BECMG 1320/1322 22015G25KT 5000 -RA TEMPO 1322/1323 25020G30KT 1500 SHRA BKN005 BKN010CB BECMG 1323/1401 20007KT CAVOK TEMPO 1402/1406 4000 SHRA FEW020CB BKN030TCU PROB40 1406/1408 3000 BR BKN005